Time;durP1;ratioP1;P1;durP2;ratioP2;P2;SDS_P1;SDS_P2;PMS_P1;PMS_P2;Temp;Humidity;BMP_temperature;BMP_pressure;BME280_temperature;BME280_humidity;BME280_pressure;Samples;Min_cycle;Max_cycle;Signal;HPM_P1;HPM_P2
2022/06/08 00:01:43;;;;;;;27.17;15.83;;;;;;;;;;5070424;28;20048;-64
2022/06/08 00:04:11;;;;;;;25.77;14.47;;;;;;;;;;5068349;28;20573;-64
2022/06/08 00:06:37;;;;;;;33.73;16.67;;;;;;;;;;5069614;28;20483;-64
2022/06/08 00:09:03;;;;;;;34.07;18.23;;;;;;;;;;5068433;28;20526;-64
2022/06/08 00:11:29;;;;;;;37.90;18.97;;;;;;;;;;5055954;28;20049;-64
2022/06/08 00:13:55;;;;;;;31.37;18.83;;;;;;;;;;5049602;28;20041;-64
2022/06/08 00:16:22;;;;;;;31.70;17.97;;;;;;;;;;5049902;28;20053;-64
2022/06/08 00:18:48;;;;;;;42.17;20.80;;;;;;;;;;5049967;28;20078;-64
2022/06/08 00:21:14;;;;;;;35.37;20.97;;;;;;;;;;5049329;28;20862;-64
2022/06/08 00:23:41;;;;;;;47.03;23.43;;;;;;;;;;5049218;28;20045;-64
2022/06/08 00:26:07;;;;;;;38.47;22.70;;;;;;;;;;5049542;28;20533;-64
2022/06/08 00:28:34;;;;;;;48.13;24.90;;;;;;;;;;5061619;28;20720;-64
2022/06/08 00:31:00;;;;;;;41.73;22.13;;;;;;;;;;5068330;28;20045;-64
2022/06/08 00:33:26;;;;;;;42.73;21.83;;;;;;;;;;5069367;28;20048;-64
2022/06/08 00:35:52;;;;;;;38.63;20.50;;;;;;;;;;5067003;28;20449;-64
2022/06/08 00:38:18;;;;;;;35.20;19.97;;;;;;;;;;5049237;28;20041;-65
2022/06/08 00:40:56;;;;;;;51.60;24.37;;;;;;;;;;5049234;28;20056;-64
2022/06/08 00:43:23;;;;;;;39.63;18.83;;;;;;;;;;5049196;28;20049;-65
2022/06/08 00:45:49;;;;;;;29.37;15.90;;;;;;;;;;5049225;28;20048;-64
2022/06/08 00:48:16;;;;;;;31.47;17.63;;;;;;;;;;5049031;28;20540;-64
2022/06/08 00:50:44;;;;;;;25.20;16.97;;;;;;;;;;5064129;28;20036;-64
2022/06/08 00:53:11;;;;;;;32.77;19.80;;;;;;;;;;5049164;28;20088;-64
2022/06/08 00:55:39;;;;;;;28.50;17.50;;;;;;;;;;5048687;28;20045;-64
2022/06/08 00:58:06;;;;;;;27.83;16.40;;;;;;;;;;5048926;28;20055;-64
2022/06/08 01:00:37;;;;;;;32.03;18.70;;;;;;;;;;5048944;28;20432;-64
2022/06/08 01:03:04;;;;;;;46.30;21.20;;;;;;;;;;5048777;28;20128;-64
2022/06/08 01:05:38;;;;;;;29.90;17.53;;;;;;;;;;5053146;28;20055;-64
2022/06/08 01:08:20;;;;;;;30.83;18.13;;;;;;;;;;5068797;28;20552;-64
2022/06/08 01:10:47;;;;;;;37.37;20.93;;;;;;;;;;5066251;28;20044;-64
2022/06/08 01:13:13;;;;;;;41.67;22.33;;;;;;;;;;5066558;28;20041;-64
2022/06/08 01:15:40;;;;;;;43.97;24.60;;;;;;;;;;5048989;28;20072;-64
2022/06/08 01:18:06;;;;;;;43.50;23.03;;;;;;;;;;5048585;28;20267;-64
2022/06/08 01:20:33;;;;;;;44.87;24.53;;;;;;;;;;5047250;28;20102;-64
2022/06/08 01:22:59;;;;;;;41.37;23.77;;;;;;;;;;5048647;28;20478;-64
2022/06/08 01:25:25;;;;;;;44.43;24.30;;;;;;;;;;5048534;28;20499;-65
2022/06/08 01:27:51;;;;;;;43.70;24.77;;;;;;;;;;5048475;28;20041;-65
2022/06/08 01:30:17;;;;;;;38.77;23.30;;;;;;;;;;5047776;28;20052;-64
2022/06/08 01:33:02;;;;;;;47.40;25.00;;;;;;;;;;5048045;28;20045;-64
2022/06/08 01:35:28;;;;;;;41.43;24.73;;;;;;;;;;5047173;28;20088;-64
2022/06/08 01:37:54;;;;;;;38.83;23.27;;;;;;;;;;5047998;28;20079;-64
2022/06/08 01:40:26;;;;;;;41.10;24.37;;;;;;;;;;5047809;28;20460;-64
2022/06/08 01:43:12;;;;;;;36.20;24.65;;;;;;;;;;5049464;28;20099;-64
2022/06/08 01:45:42;;;;;;;37.87;23.00;;;;;;;;;;5047873;28;20052;-65
2022/06/08 01:48:29;;;;;;;40.13;23.63;;;;;;;;;;5048847;28;20048;-64
2022/06/08 01:50:55;;;;;;;40.33;21.67;;;;;;;;;;5047897;28;20049;-64
2022/06/08 01:53:39;;;;;;;41.77;22.80;;;;;;;;;;5046818;28;20053;-65
2022/06/08 01:56:11;;;;;;;33.63;21.40;;;;;;;;;;5047738;28;20049;-64
2022/06/08 01:58:40;;;;;;;35.07;20.97;;;;;;;;;;5047900;28;20573;-64
2022/06/08 02:01:21;;;;;;;39.83;20.80;;;;;;;;;;5046894;28;20140;-64
2022/06/08 02:03:53;;;;;;;31.70;21.50;;;;;;;;;;5047813;28;20048;-64
2022/06/08 02:06:24;;;;;;;34.47;20.97;;;;;;;;;;5047813;28;20119;-65
2022/06/08 02:09:16;;;;;;;28.47;18.70;;;;;;;;;;5047927;28;20052;-65
2022/06/08 02:11:44;;;;;;;31.37;19.27;;;;;;;;;;5045881;28;20619;-64
2022/06/08 02:14:21;;;;;;;32.37;21.03;;;;;;;;;;5047900;28;20098;-64
2022/06/08 02:16:50;;;;;;;25.50;19.10;;;;;;;;;;5053547;28;20119;-64
2022/06/08 02:19:26;;;;;;;33.37;21.17;;;;;;;;;;5048023;28;20045;-64
2022/06/08 02:21:58;;;;;;;31.17;19.13;;;;;;;;;;5048243;28;20052;-65
2022/06/08 02:24:37;;;;;;;32.73;20.00;;;;;;;;;;5048172;28;20048;-64
2022/06/08 02:27:09;;;;;;;32.40;18.83;;;;;;;;;;5048214;28;20286;-64
2022/06/08 02:29:47;;;;;;;29.63;19.08;;;;;;;;;;5048127;28;20517;-65
2022/06/08 02:35:28;;;;;;;30.23;19.23;;;;;;;;;;5049541;28;20091;-64
2022/06/08 02:37:56;;;;;;;31.00;19.13;;;;;;;;;;5049125;28;20044;-64
2022/06/08 02:40:26;;;;;;;29.80;19.77;;;;;;;;;;5050314;28;20068;-64
2022/06/08 02:42:54;;;;;;;29.07;19.07;;;;;;;;;;5050404;28;20048;-64
2022/06/08 02:45:30;;;;;;;29.10;19.57;;;;;;;;;;5051197;28;20045;-65
2022/06/08 02:47:58;;;;;;;30.53;20.10;;;;;;;;;;5058515;28;20041;-64
2022/06/08 02:50:25;;;;;;;28.53;19.47;;;;;;;;;;5058170;28;20037;-64
2022/06/08 02:52:54;;;;;;;26.20;19.23;;;;;;;;;;5059127;28;20509;-65
2022/06/08 02:55:31;;;;;;;25.63;19.77;;;;;;;;;;5059715;28;20040;-64
2022/06/08 02:58:09;;;;;;;25.93;18.83;;;;;;;;;;5056345;28;20525;-64
2022/06/08 03:01:02;;;;;;;32.63;19.20;;;;;;;;;;5059722;28;20037;-64
2022/06/08 03:03:39;;;;;;;32.93;20.20;;;;;;;;;;5056974;28;20057;-64
2022/06/08 03:06:07;;;;;;;25.80;17.57;;;;;;;;;;5057849;28;20124;-65
2022/06/08 03:08:38;;;;;;;25.67;17.93;;;;;;;;;;5063496;28;20266;-65
2022/06/08 03:11:05;;;;;;;28.80;19.37;;;;;;;;;;5064721;28;20098;-65
2022/06/08 03:13:39;;;;;;;27.60;19.10;;;;;;;;;;5066102;28;20048;-64
2022/06/08 03:16:06;;;;;;;29.87;19.60;;;;;;;;;;5063204;28;20091;-65
2022/06/08 03:18:32;;;;;;;27.00;18.77;;;;;;;;;;5063292;28;20072;-65
2022/06/08 03:20:59;;;;;;;25.27;19.00;;;;;;;;;;5063706;28;20041;-65
2022/06/08 03:23:26;;;;;;;26.53;18.97;;;;;;;;;;5064293;28;20066;-65
2022/06/08 03:25:52;;;;;;;26.33;19.00;;;;;;;;;;5065303;28;20045;-65
2022/06/08 03:28:18;;;;;;;25.70;18.23;;;;;;;;;;5064693;28;20120;-64
2022/06/08 03:30:45;;;;;;;33.43;18.23;;;;;;;;;;5062778;28;20051;-64
2022/06/08 03:33:12;;;;;;;28.73;18.93;;;;;;;;;;5070274;28;20479;-64
2022/06/08 03:35:39;;;;;;;32.23;20.03;;;;;;;;;;5069033;28;20040;-64
2022/06/08 03:38:05;;;;;;;26.53;18.57;;;;;;;;;;5070181;28;20070;-64
2022/06/08 03:40:32;;;;;;;30.10;19.57;;;;;;;;;;5069742;28;20505;-64
2022/06/08 03:42:58;;;;;;;29.90;19.13;;;;;;;;;;5054016;28;20053;-64
2022/06/08 03:45:25;;;;;;;28.67;19.80;;;;;;;;;;5050351;28;20045;-64
2022/06/08 03:47:53;;;;;;;28.33;18.60;;;;;;;;;;5049788;28;20052;-64
2022/06/08 03:50:21;;;;;;;34.17;20.53;;;;;;;;;;5063407;28;20058;-64
2022/06/08 03:52:51;;;;;;;28.10;19.07;;;;;;;;;;5069554;28;20040;-64
2022/06/08 03:55:19;;;;;;;29.47;19.40;;;;;;;;;;5069606;28;20051;-64
2022/06/08 03:57:45;;;;;;;34.27;20.50;;;;;;;;;;5069965;28;20059;-64
2022/06/08 04:00:12;;;;;;;29.03;19.50;;;;;;;;;;5055292;28;20045;-64
2022/06/08 04:02:39;;;;;;;25.67;19.07;;;;;;;;;;5049185;28;20052;-64
2022/06/08 04:05:05;;;;;;;28.57;19.73;;;;;;;;;;5048808;28;20048;-64
2022/06/08 04:07:32;;;;;;;26.33;19.90;;;;;;;;;;5049161;28;20052;-64
2022/06/08 04:09:59;;;;;;;34.87;21.97;;;;;;;;;;5048170;28;20049;-64
2022/06/08 04:12:25;;;;;;;27.23;19.67;;;;;;;;;;5049650;28;20041;-64
2022/06/08 04:14:51;;;;;;;28.87;20.60;;;;;;;;;;5033691;28;20041;-64
2022/06/08 04:17:18;;;;;;;30.33;20.50;;;;;;;;;;5048961;28;20041;-64
2022/06/08 04:19:44;;;;;;;28.93;20.83;;;;;;;;;;5047866;28;20407;-64
2022/06/08 04:22:11;;;;;;;30.83;21.47;;;;;;;;;;5031145;28;20115;-64
2022/06/08 04:24:37;;;;;;;30.63;21.17;;;;;;;;;;5049029;28;20048;-64
2022/06/08 04:27:03;;;;;;;30.80;22.17;;;;;;;;;;5049353;28;20048;-64
2022/06/08 04:29:29;;;;;;;32.47;21.20;;;;;;;;;;5055083;28;20043;-64
2022/06/08 04:31:55;;;;;;;33.37;22.40;;;;;;;;;;5054816;28;20048;-64
2022/06/08 04:34:21;;;;;;;28.83;20.27;;;;;;;;;;5047416;28;20049;-64
2022/06/08 04:36:47;;;;;;;30.17;20.77;;;;;;;;;;5049774;28;20491;-64
2022/06/08 04:39:14;;;;;;;26.90;20.60;;;;;;;;;;5068929;28;20041;-64
2022/06/08 04:41:40;;;;;;;30.93;21.27;;;;;;;;;;5059602;28;20196;-64
2022/06/08 04:44:07;;;;;;;31.97;22.10;;;;;;;;;;5048917;28;20041;-64
2022/06/08 04:46:33;;;;;;;29.87;20.07;;;;;;;;;;5047385;28;20605;-64
2022/06/08 04:48:59;;;;;;;29.60;20.53;;;;;;;;;;5050647;28;20041;-64
2022/06/08 04:51:26;;;;;;;27.47;19.93;;;;;;;;;;5059919;28;20045;-64
2022/06/08 04:53:52;;;;;;;29.90;19.80;;;;;;;;;;5048378;28;20041;-64
2022/06/08 04:56:18;;;;;;;25.17;19.37;;;;;;;;;;5049118;28;20045;-64
2022/06/08 04:58:44;;;;;;;30.57;19.53;;;;;;;;;;5050931;28;20055;-64
2022/06/08 05:01:10;;;;;;;27.97;19.87;;;;;;;;;;5058146;28;20053;-64
2022/06/08 05:03:37;;;;;;;26.00;19.30;;;;;;;;;;5048377;28;20048;-64
2022/06/08 05:06:03;;;;;;;25.17;20.23;;;;;;;;;;5047476;28;20049;-63
2022/06/08 05:08:29;;;;;;;23.67;18.57;;;;;;;;;;5049884;28;20513;-64
2022/06/08 05:10:57;;;;;;;22.23;18.60;;;;;;;;;;5057598;28;20045;-64
2022/06/08 05:13:23;;;;;;;28.13;19.03;;;;;;;;;;5066124;28;20167;-64
2022/06/08 05:15:51;;;;;;;24.83;18.90;;;;;;;;;;5059065;28;20067;-64
2022/06/08 05:18:22;;;;;;;23.40;17.00;;;;;;;;;;5054835;28;20104;-64
2022/06/08 05:20:49;;;;;;;25.30;18.20;;;;;;;;;;5052950;28;20056;-64
2022/06/08 05:23:17;;;;;;;23.30;17.47;;;;;;;;;;5055027;28;20064;-64
2022/06/08 05:25:44;;;;;;;22.87;16.10;;;;;;;;;;5057395;28;20048;-64
2022/06/08 05:28:11;;;;;;;21.37;16.50;;;;;;;;;;5060060;28;20067;-64
2022/06/08 05:30:38;;;;;;;23.83;16.87;;;;;;;;;;5066845;28;20130;-64
2022/06/08 05:33:04;;;;;;;22.33;16.87;;;;;;;;;;5062176;28;20037;-64
2022/06/08 05:35:31;;;;;;;21.93;15.97;;;;;;;;;;5053811;28;20397;-64
2022/06/08 05:37:57;;;;;;;19.63;15.93;;;;;;;;;;5066111;28;20870;-64
2022/06/08 05:40:24;;;;;;;22.10;17.77;;;;;;;;;;5060967;28;20061;-64
2022/06/08 05:42:50;;;;;;;19.43;15.80;;;;;;;;;;5056647;28;20558;-64
2022/06/08 05:45:18;;;;;;;20.60;15.67;;;;;;;;;;5047344;28;20075;-64
2022/06/08 05:47:44;;;;;;;16.80;14.27;;;;;;;;;;5047710;28;20191;-64
2022/06/08 05:50:10;;;;;;;17.57;15.03;;;;;;;;;;5048291;28;20582;-64
2022/06/08 05:52:37;;;;;;;21.47;14.93;;;;;;;;;;5062595;28;20049;-64
2022/06/08 05:55:03;;;;;;;19.00;16.13;;;;;;;;;;5067377;28;20044;-64
2022/06/08 05:57:29;;;;;;;20.53;15.70;;;;;;;;;;5067996;28;20052;-64
2022/06/08 05:59:55;;;;;;;21.47;16.37;;;;;;;;;;5065640;28;20051;-64
2022/06/08 06:02:21;;;;;;;19.77;15.80;;;;;;;;;;5046100;28;20418;-64
2022/06/08 06:04:47;;;;;;;19.03;16.13;;;;;;;;;;5047256;28;20045;-64
2022/06/08 06:07:13;;;;;;;22.07;15.93;;;;;;;;;;5049149;28;20068;-64
2022/06/08 06:09:41;;;;;;;19.40;15.30;;;;;;;;;;5050490;28;20134;-64
2022/06/08 06:12:07;;;;;;;19.43;16.40;;;;;;;;;;5052335;28;20045;-64
2022/06/08 06:14:33;;;;;;;19.20;14.73;;;;;;;;;;5051019;28;20040;-64
2022/06/08 06:16:59;;;;;;;18.40;14.77;;;;;;;;;;5051379;28;20041;-64
2022/06/08 06:19:25;;;;;;;16.67;13.93;;;;;;;;;;5071631;28;20127;-64
2022/06/08 06:21:52;;;;;;;19.10;13.93;;;;;;;;;;5071183;28;20055;-64
2022/06/08 06:24:18;;;;;;;17.37;13.53;;;;;;;;;;5070108;28;20079;-64
2022/06/08 06:26:44;;;;;;;14.03;11.47;;;;;;;;;;5071058;28;20044;-64
2022/06/08 06:29:10;;;;;;;12.90;10.07;;;;;;;;;;5071532;28;20144;-64
2022/06/08 06:31:36;;;;;;;12.30;9.27;;;;;;;;;;5069785;28;20055;-64
2022/06/08 06:34:02;;;;;;;12.40;10.07;;;;;;;;;;5051581;28;20111;-64
2022/06/08 06:36:28;;;;;;;11.57;8.60;;;;;;;;;;5051348;28;20131;-64
2022/06/08 06:38:54;;;;;;;10.80;8.50;;;;;;;;;;5051539;28;20073;-63
2022/06/08 06:41:21;;;;;;;11.83;7.80;;;;;;;;;;5050139;28;20419;-63
2022/06/08 06:43:48;;;;;;;13.70;7.93;;;;;;;;;;5051019;28;20049;-63
2022/06/08 06:46:15;;;;;;;12.43;9.37;;;;;;;;;;5050996;28;20130;-63
2022/06/08 06:48:42;;;;;;;10.80;8.77;;;;;;;;;;5050762;28;20071;-63
2022/06/08 06:51:08;;;;;;;9.83;8.13;;;;;;;;;;5049660;28;20120;-63
2022/06/08 06:53:35;;;;;;;10.80;7.50;;;;;;;;;;5048709;28;20075;-63
2022/06/08 06:56:01;;;;;;;10.27;7.83;;;;;;;;;;5050655;28;20044;-63
2022/06/08 06:58:27;;;;;;;9.90;7.20;;;;;;;;;;5051147;28;20129;-63
2022/06/08 07:00:53;;;;;;;10.77;7.10;;;;;;;;;;5050578;28;20345;-63
2022/06/08 07:03:20;;;;;;;9.33;6.97;;;;;;;;;;5049550;28;20053;-63
2022/06/08 07:05:46;;;;;;;8.23;6.10;;;;;;;;;;5050599;28;20179;-63
2022/06/08 07:08:12;;;;;;;8.33;6.40;;;;;;;;;;5050089;28;20037;-63
2022/06/08 07:10:38;;;;;;;7.20;5.37;;;;;;;;;;5050505;28;20041;-63
2022/06/08 07:13:05;;;;;;;9.00;5.57;;;;;;;;;;5050921;28;20049;-64
2022/06/08 07:15:31;;;;;;;10.23;6.53;;;;;;;;;;5051353;28;20041;-64
2022/06/08 07:17:57;;;;;;;10.33;6.63;;;;;;;;;;5050450;28;20048;-64
2022/06/08 07:20:23;;;;;;;8.30;5.60;;;;;;;;;;5049105;28;20136;-63
2022/06/08 07:22:50;;;;;;;7.70;5.93;;;;;;;;;;5050166;28;20487;-64
2022/06/08 07:25:16;;;;;;;9.63;4.97;;;;;;;;;;5049483;28;20048;-64
2022/06/08 07:27:43;;;;;;;8.77;5.47;;;;;;;;;;5050017;28;20041;-64
2022/06/08 07:30:09;;;;;;;7.27;5.37;;;;;;;;;;5050313;28;20045;-64
2022/06/08 07:32:36;;;;;;;9.20;5.13;;;;;;;;;;5048335;28;20040;-63
2022/06/08 07:35:02;;;;;;;9.73;5.23;;;;;;;;;;5049797;28;20548;-63
2022/06/08 07:37:28;;;;;;;5.93;4.87;;;;;;;;;;5050056;28;20040;-63
2022/06/08 07:39:54;;;;;;;6.30;4.90;;;;;;;;;;5049842;28;20091;-63
2022/06/08 07:42:21;;;;;;;6.70;4.57;;;;;;;;;;5049925;28;20053;-63
2022/06/08 07:44:47;;;;;;;6.73;4.63;;;;;;;;;;5048922;28;20060;-63
2022/06/08 07:47:13;;;;;;;6.53;4.40;;;;;;;;;;5050037;28;20482;-63
2022/06/08 07:49:41;;;;;;;6.93;4.00;;;;;;;;;;5049171;28;20043;-63
2022/06/08 07:52:09;;;;;;;5.47;3.70;;;;;;;;;;5048447;28;20044;-63
2022/06/08 07:54:35;;;;;;;7.33;4.37;;;;;;;;;;5049747;28;20037;-63
2022/06/08 07:57:01;;;;;;;7.37;4.20;;;;;;;;;;5049889;28;20132;-63
2022/06/08 07:59:29;;;;;;;4.67;3.13;;;;;;;;;;5062912;28;20079;-63
2022/06/08 08:01:56;;;;;;;5.80;4.17;;;;;;;;;;5067964;28;20094;-63
2022/06/08 08:04:22;;;;;;;7.80;3.87;;;;;;;;;;5067232;28;20051;-63
2022/06/08 08:06:48;;;;;;;6.60;3.27;;;;;;;;;;5068261;28;20449;-63
2022/06/08 08:09:18;;;;;;;7.23;3.40;;;;;;;;;;5069134;28;20086;-63
2022/06/08 08:11:46;;;;;;;5.00;2.97;;;;;;;;;;5067673;28;20048;-63
2022/06/08 08:14:13;;;;;;;5.97;3.37;;;;;;;;;;5069128;28;20135;-63
2022/06/08 08:16:39;;;;;;;4.10;2.53;;;;;;;;;;5069280;28;20421;-63
2022/06/08 08:19:05;;;;;;;6.27;3.00;;;;;;;;;;5067888;28;20055;-63
2022/06/08 08:21:34;;;;;;;3.00;2.20;;;;;;;;;;5068836;28;20051;-63
2022/06/08 08:24:00;;;;;;;3.63;2.50;;;;;;;;;;5068844;28;20044;-63
2022/06/08 08:26:27;;;;;;;3.97;2.23;;;;;;;;;;5068293;28;20052;-63
2022/06/08 08:28:54;;;;;;;3.70;2.23;;;;;;;;;;5067016;28;20518;-63
2022/06/08 08:31:20;;;;;;;4.83;2.20;;;;;;;;;;5067044;28;20055;-63
2022/06/08 08:33:46;;;;;;;3.60;2.43;;;;;;;;;;5068836;28;20072;-63
2022/06/08 08:36:13;;;;;;;4.97;2.90;;;;;;;;;;5067757;28;20485;-63
2022/06/08 08:38:39;;;;;;;5.47;2.27;;;;;;;;;;5068574;28;20524;-63
2022/06/08 08:42:20;;;;;;;3.87;2.00;;;;;;;;;;5068349;28;20075;-63
2022/06/08 08:43:51;;;;;;;5.37;1.93;;;;;;;;;;5068479;28;20044;-63
2022/06/08 08:46:21;;;;;;;3.60;2.00;;;;;;;;;;5068340;28;20123;-63
2022/06/08 08:48:54;;;;;;;5.00;1.80;;;;;;;;;;5067322;28;20044;-63
2022/06/08 08:51:25;;;;;;;3.27;1.73;;;;;;;;;;5066386;28;20123;-63
2022/06/08 08:53:58;;;;;;;5.63;2.80;;;;;;;;;;5047027;28;20150;-63
2022/06/08 08:56:28;;;;;;;4.30;2.70;;;;;;;;;;5048879;28;20049;-63
2022/06/08 08:58:54;;;;;;;2.77;2.43;;;;;;;;;;5049022;28;20061;-64
2022/06/08 09:01:24;;;;;;;3.23;2.03;;;;;;;;;;5048685;28;20196;-63
2022/06/08 09:03:55;;;;;;;3.90;2.73;;;;;;;;;;5048387;28;20094;-63
2022/06/08 09:06:24;;;;;;;5.23;3.07;;;;;;;;;;5046324;28;20053;-63
2022/06/08 09:08:52;;;;;;;3.97;3.33;;;;;;;;;;5048461;28;20052;-63
2022/06/08 09:11:26;;;;;;;4.77;3.07;;;;;;;;;;5048115;28;20045;-64
2022/06/08 09:14:01;;;;;;;5.37;2.63;;;;;;;;;;5048652;28;20186;-63
2022/06/08 09:16:32;;;;;;;5.70;2.57;;;;;;;;;;5048324;28;20041;-63
2022/06/08 09:18:58;;;;;;;4.47;2.80;;;;;;;;;;5047767;28;20049;-63
2022/06/08 09:21:27;;;;;;;3.37;2.40;;;;;;;;;;5047842;28;20106;-63
2022/06/08 09:24:08;;;;;;;5.00;2.67;;;;;;;;;;5048063;28;20045;-63
2022/06/08 09:26:36;;;;;;;5.17;2.33;;;;;;;;;;5047916;28;20045;-63
2022/06/08 09:29:17;;;;;;;5.87;2.90;;;;;;;;;;5062070;28;20506;-63
2022/06/08 09:31:43;;;;;;;4.63;2.30;;;;;;;;;;5067221;28;20135;-63
2022/06/08 09:34:16;;;;;;;4.07;2.50;;;;;;;;;;5068130;28;20048;-63
2022/06/08 09:36:43;;;;;;;5.27;2.50;;;;;;;;;;5067951;28;20430;-63
2022/06/08 09:39:12;;;;;;;5.37;2.23;;;;;;;;;;5067397;28;20623;-63
2022/06/08 09:41:40;;;;;;;4.38;1.98;;;;;;;;;;5067365;28;20056;-63
2022/06/08 09:44:09;;;;;;;3.60;2.03;;;;;;;;;;5050624;28;20081;-63
2022/06/08 09:52:46;;;;;;;8.25;2.47;;;;;;;;;;5046878;28;20057;-63
2022/06/08 09:55:12;;;;;;;4.93;2.25;;;;;;;;;;5048022;28;20044;-63
2022/06/08 09:57:56;;;;;;;6.35;2.42;;;;;;;;;;5054493;28;20045;-63
2022/06/08 10:00:29;;;;;;;5.97;2.67;;;;;;;;;;5067409;28;20185;-63
2022/06/08 10:03:01;;;;;;;4.18;2.50;;;;;;;;;;5066880;28;20048;-63
2022/06/08 10:05:36;;;;;;;5.70;3.40;;;;;;;;;;5067688;28;20135;-63
2022/06/08 10:08:12;;;;;;;3.85;2.60;;;;;;;;;;5067495;28;20090;-63
2022/06/08 10:10:38;;;;;;;7.35;2.85;;;;;;;;;;5067768;28;20040;-63
2022/06/08 10:13:12;;;;;;;4.53;3.25;;;;;;;;;;5055321;28;20493;-63
2022/06/08 10:15:43;;;;;;;6.38;2.90;;;;;;;;;;5063089;28;20543;-63
2022/06/08 10:18:42;;;;;;;5.80;3.08;;;;;;;;;;5067496;28;20387;-63
2022/06/08 10:21:14;;;;;;;7.15;3.35;;;;;;;;;;5053071;28;20554;-63
2022/06/08 10:23:41;;;;;;;4.57;3.47;;;;;;;;;;5067684;28;20128;-63
2022/06/08 10:26:16;;;;;;;11.20;2.85;;;;;;;;;;5066147;28;20295;-63
2022/06/08 10:28:47;;;;;;;6.65;3.45;;;;;;;;;;5047825;28;20052;-63
2022/06/08 10:31:21;;;;;;;7.65;3.92;;;;;;;;;;5047732;28;20079;-64
2022/06/08 10:34:20;;;;;;;5.20;3.05;;;;;;;;;;5047695;28;20499;-63
2022/06/08 10:36:49;;;;;;;7.05;3.15;;;;;;;;;;5025424;28;20426;-63
2022/06/08 10:39:15;;;;;;;5.10;3.22;;;;;;;;;;5047181;28;20063;-63
2022/06/08 10:44:51;;;;;;;4.57;3.00;;;;;;;;;;5052069;28;20498;-63
2022/06/08 10:47:28;;;;;;;5.90;3.28;;;;;;;;;;5067343;28;20056;-63
2022/06/08 10:50:00;;;;;;;5.22;2.90;;;;;;;;;;5051878;28;20052;-63
2022/06/08 10:52:26;;;;;;;5.82;2.60;;;;;;;;;;5056066;28;20052;-63
2022/06/08 10:54:53;;;;;;;4.75;2.60;;;;;;;;;;5058335;28;20040;-63
2022/06/08 10:57:42;;;;;;;6.60;3.20;;;;;;;;;;5070916;28;20032;-63
2022/06/08 11:00:20;;;;;;;5.35;3.35;;;;;;;;;;5060155;28;20470;-63
2022/06/08 11:02:53;;;;;;;4.70;2.78;;;;;;;;;;5058031;28;20053;-63
2022/06/08 11:05:28;;;;;;;5.10;3.20;;;;;;;;;;5049350;28;20056;-63
2022/06/08 11:08:06;;;;;;;5.88;2.63;;;;;;;;;;5055671;28;20473;-63
2022/06/08 11:10:44;;;;;;;5.65;2.42;;;;;;;;;;5062717;28;20491;-63
2022/06/08 11:13:40;;;;;;;3.30;2.00;;;;;;;;;;5067754;28;20052;-63
2022/06/08 11:16:19;;;;;;;6.93;2.17;;;;;;;;;;5049177;28;20087;-63
2022/06/08 11:18:57;;;;;;;8.43;2.03;;;;;;;;;;5066752;28;20048;-63
2022/06/08 11:21:23;;;;;;;5.30;1.95;;;;;;;;;;5070235;28;20056;-63
2022/06/08 11:23:49;;;;;;;5.53;2.17;;;;;;;;;;5070400;28;20056;-63
2022/06/08 11:26:23;;;;;;;5.95;1.80;;;;;;;;;;5056461;28;20091;-63
2022/06/08 11:28:52;;;;;;;9.15;1.92;;;;;;;;;;5069895;28;20048;-63
2022/06/08 11:31:27;;;;;;;4.93;1.63;;;;;;;;;;5050895;28;20045;-63
2022/06/08 11:34:12;;;;;;;4.27;1.10;;;;;;;;;;5049257;28;20061;-63
2022/06/08 11:36:41;;;;;;;8.17;1.87;;;;;;;;;;5049290;28;20040;-63
2022/06/08 11:39:26;;;;;;;7.03;2.23;;;;;;;;;;5059406;28;20048;-63
2022/06/08 11:42:00;;;;;;;4.13;1.50;;;;;;;;;;5060149;28;20057;-62
2022/06/08 11:44:31;;;;;;;5.07;1.20;;;;;;;;;;5063192;28;20123;-63
2022/06/08 11:47:17;;;;;;;5.17;1.30;;;;;;;;;;5055421;28;20052;-63
2022/06/08 11:49:45;;;;;;;4.57;1.40;;;;;;;;;;5069634;28;20044;-63
2022/06/08 11:52:37;;;;;;;8.00;1.90;;;;;;;;;;5068644;28;20052;-63
2022/06/08 11:55:08;;;;;;;8.20;1.90;;;;;;;;;;5056084;28;20507;-63
2022/06/08 11:57:34;;;;;;;6.73;2.23;;;;;;;;;;5060317;28;20505;-63
2022/06/08 12:00:00;;;;;;;9.17;2.03;;;;;;;;;;5059713;28;20041;-66
2022/06/08 12:02:37;;;;;;;8.53;2.57;;;;;;;;;;5067264;28;20055;-66
2022/06/08 12:05:04;;;;;;;16.00;3.23;;;;;;;;;;5060231;28;20039;-66
2022/06/08 12:07:35;;;;;;;11.40;2.63;;;;;;;;;;5055620;28;20059;-66
2022/06/08 12:10:03;;;;;;;11.77;4.07;;;;;;;;;;5054575;28;20056;-66
2022/06/08 12:12:29;;;;;;;10.43;2.90;;;;;;;;;;5058537;28;20126;-65
2022/06/08 12:14:55;;;;;;;16.40;3.20;;;;;;;;;;5059935;28;20037;-65
2022/06/08 12:17:40;;;;;;;10.23;3.53;;;;;;;;;;5060675;28;20104;-65
2022/06/08 12:20:23;;;;;;;14.30;4.90;;;;;;;;;;5069150;28;20048;-65
2022/06/08 12:22:53;;;;;;;11.00;4.77;;;;;;;;;;5065060;28;20060;-65
2022/06/08 12:25:21;;;;;;;11.03;5.13;;;;;;;;;;5069063;28;20101;-65
2022/06/08 12:28:06;;;;;;;14.70;5.43;;;;;;;;;;5067734;28;20048;-65
2022/06/08 12:30:35;;;;;;;11.10;5.20;;;;;;;;;;5061630;28;20044;-65
2022/06/08 12:33:03;;;;;;;8.50;4.43;;;;;;;;;;5050227;28;20096;-65
2022/06/08 12:35:32;;;;;;;8.70;4.67;;;;;;;;;;5049025;28;20045;-65
2022/06/08 12:38:13;;;;;;;17.47;8.47;;;;;;;;;;5060049;28;20059;-65
2022/06/08 12:40:40;;;;;;;20.77;11.07;;;;;;;;;;5068057;28;20087;-65
2022/06/08 12:43:12;;;;;;;17.47;9.63;;;;;;;;;;5068474;28;20083;-65
2022/06/08 12:46:05;;;;;;;18.23;7.68;;;;;;;;;;5069051;28;20053;-65
2022/06/08 12:48:38;;;;;;;11.60;7.23;;;;;;;;;;5060132;28;20055;-65
2022/06/08 12:51:21;;;;;;;13.33;7.53;;;;;;;;;;5068677;28;20048;-65
2022/06/08 12:53:47;;;;;;;18.17;9.90;;;;;;;;;;5058257;28;20048;-65
2022/06/08 12:56:13;;;;;;;18.10;9.53;;;;;;;;;;5061044;28;20045;-65
2022/06/08 12:58:40;;;;;;;16.27;9.17;;;;;;;;;;5047232;28;20045;-65
2022/06/08 13:01:10;;;;;;;17.77;8.63;;;;;;;;;;5047074;28;20092;-65
2022/06/08 13:03:36;;;;;;;15.63;10.10;;;;;;;;;;5047773;28;20530;-65
2022/06/08 13:06:02;;;;;;;18.23;10.83;;;;;;;;;;5047153;28;20503;-65
2022/06/08 13:08:28;;;;;;;16.83;9.97;;;;;;;;;;5047396;28;20487;-65
2022/06/08 13:10:56;;;;;;;17.63;10.70;;;;;;;;;;5048265;28;20104;-65
2022/06/08 13:13:23;;;;;;;24.33;11.43;;;;;;;;;;5048388;28;20080;-65
2022/06/08 13:15:50;;;;;;;16.90;10.93;;;;;;;;;;5048019;28;20049;-65
2022/06/08 13:18:18;;;;;;;28.00;13.03;;;;;;;;;;5061547;28;20536;-65
2022/06/08 13:20:44;;;;;;;14.83;6.60;;;;;;;;;;5066495;28;20510;-66
2022/06/08 13:23:10;;;;;;;10.93;5.90;;;;;;;;;;5059082;28;20048;-66
2022/06/08 13:25:36;;;;;;;13.17;5.40;;;;;;;;;;5067841;28;20087;-66
2022/06/08 13:28:10;;;;;;;13.77;6.30;;;;;;;;;;5050180;28;20049;-66
2022/06/08 13:30:37;;;;;;;16.20;6.80;;;;;;;;;;5047838;28;20558;-66
2022/06/08 13:33:03;;;;;;;16.67;6.57;;;;;;;;;;5046354;28;20084;-66
2022/06/08 13:35:31;;;;;;;10.00;4.37;;;;;;;;;;5046850;28;20128;-66
2022/06/08 13:37:58;;;;;;;7.93;2.33;;;;;;;;;;5047714;28;20430;-67
2022/06/08 13:40:28;;;;;;;8.83;2.13;;;;;;;;;;5030093;28;20110;-66
2022/06/08 13:42:54;;;;;;;8.53;2.67;;;;;;;;;;5047251;28;20414;-67
2022/06/08 13:45:25;;;;;;;8.23;2.43;;;;;;;;;;5047770;28;20056;-67
2022/06/08 13:47:53;;;;;;;4.63;1.80;;;;;;;;;;5047796;28;20041;-66
2022/06/08 13:50:23;;;;;;;5.80;2.10;;;;;;;;;;5047405;28;20049;-66
2022/06/08 13:52:50;;;;;;;4.83;2.53;;;;;;;;;;5046351;28;20048;-66
2022/06/08 13:55:18;;;;;;;7.70;2.00;;;;;;;;;;5047529;28;20048;-66
2022/06/08 13:57:46;;;;;;;6.97;1.90;;;;;;;;;;5047263;28;20411;-66
2022/06/08 14:00:12;;;;;;;5.77;2.00;;;;;;;;;;5047375;28;20044;-66
2022/06/08 14:02:43;;;;;;;3.90;1.53;;;;;;;;;;5065717;28;20066;-66
2022/06/08 14:05:13;;;;;;;6.93;2.03;;;;;;;;;;5067539;28;20478;-66
2022/06/08 14:13:00;;;;;;;7.33;1.90;;;;;;;;;;5056178;28;20047;-66
2022/06/08 14:13:29;;;;;;;6.07;2.10;;;;;;;;;;5067589;28;20056;-67
2022/06/08 14:15:56;;;;;;;5.23;2.20;;;;;;;;;;5066130;28;20052;-67
2022/06/08 14:18:28;;;;;;;8.47;2.50;;;;;;;;;;5067582;28;20144;-66
2022/06/08 14:20:54;;;;;;;4.70;2.23;;;;;;;;;;5064259;28;20430;-67
2022/06/08 14:23:21;;;;;;;6.90;2.63;;;;;;;;;;5046609;28;20137;-67
2022/06/08 14:25:48;;;;;;;7.97;2.60;;;;;;;;;;5047620;28;20107;-67
2022/06/08 14:28:14;;;;;;;8.60;2.63;;;;;;;;;;5049213;28;20048;-67
2022/06/08 14:30:44;;;;;;;6.60;2.90;;;;;;;;;;5051182;28;20053;-67
2022/06/08 14:33:21;;;;;;;7.33;3.03;;;;;;;;;;5051232;28;20076;-67
2022/06/08 14:35:48;;;;;;;7.17;2.63;;;;;;;;;;5032795;28;20045;-66
2022/06/08 14:38:22;;;;;;;5.73;2.13;;;;;;;;;;5050695;28;20140;-67
2022/06/08 14:40:48;;;;;;;6.77;2.53;;;;;;;;;;5068883;28;20131;-67
2022/06/08 14:43:15;;;;;;;6.93;2.13;;;;;;;;;;5069029;28;20056;-67
2022/06/08 14:45:42;;;;;;;6.43;2.23;;;;;;;;;;5069378;28;20052;-66
2022/06/08 14:48:16;;;;;;;7.07;1.70;;;;;;;;;;5058597;28;20053;-66
2022/06/08 14:50:44;;;;;;;5.73;1.47;;;;;;;;;;5050887;28;20041;-66
2022/06/08 14:53:11;;;;;;;3.43;1.10;;;;;;;;;;5050940;28;20041;-66
2022/06/08 14:58:22;;;;;;;4.07;1.23;;;;;;;;;;5054494;28;20051;-66
2022/06/08 15:00:48;;;;;;;4.83;1.50;;;;;;;;;;5059054;28;20410;-66